Time;durP1;ratioP1;P1;durP2;ratioP2;P2;SDS_P1;SDS_P2;PMS_P1;PMS_P2;Temp;Humidity;BMP_temperature;BMP_pressure;BME280_temperature;BME280_humidity;BME280_pressure;Samples;Min_cycle;Max_cycle;Signal;HPM_P1;HPM_P2
2022/06/10 00:00:28;;;;;;;9.75;3.40;;;;;;;10.91;90.40;96596.72;2009580;29;20045;-60
2022/06/10 00:01:29;;;;;;;6.22;3.03;;;;;;;10.88;90.28;96602.00;2010502;29;20050;-60
2022/06/10 00:02:30;;;;;;;6.88;3.30;;;;;;;10.83;90.53;96599.59;2017934;29;20044;-61
2022/06/10 00:03:32;;;;;;;5.55;2.88;;;;;;;10.80;90.89;96597.13;2017847;29;20097;-60
2022/06/10 00:04:34;;;;;;;4.90;3.20;;;;;;;10.77;90.93;96597.22;2018189;29;20543;-60
2022/06/10 00:05:37;;;;;;;5.68;2.92;;;;;;;10.76;91.30;96601.59;2025977;29;20045;-60
2022/06/10 00:06:38;;;;;;;8.32;3.33;;;;;;;10.72;90.67;96599.16;2025295;29;20056;-59
2022/06/10 00:07:39;;;;;;;5.03;2.90;;;;;;;10.72;91.04;96607.81;2017741;29;20061;-60
2022/06/10 00:08:44;;;;;;;6.82;3.30;;;;;;;10.69;90.71;96604.47;2025230;29;20048;-60
2022/06/10 00:09:45;;;;;;;5.50;3.55;;;;;;;10.67;91.70;96603.69;2033346;29;20051;-60
2022/06/10 00:10:49;;;;;;;7.28;3.22;;;;;;;10.64;91.08;96604.66;2009284;29;20054;-60
2022/06/10 00:11:50;;;;;;;7.55;3.33;;;;;;;10.63;90.93;96605.53;2011066;29;20057;-60
2022/06/10 00:12:51;;;;;;;8.95;3.40;;;;;;;10.64;91.18;96606.38;2010621;29;20437;-60
2022/06/10 00:13:52;;;;;;;6.50;3.38;;;;;;;10.66;91.23;96607.19;2010172;29;20053;-60
2022/06/10 00:14:53;;;;;;;5.18;3.10;;;;;;;10.64;91.30;96604.66;2009965;29;20049;-60
2022/06/10 00:15:55;;;;;;;9.05;3.33;;;;;;;10.64;91.60;96609.84;2017782;29;20049;-62
2022/06/10 00:16:56;;;;;;;8.20;3.28;;;;;;;10.63;91.77;96605.53;2026620;29;20078;-60
2022/06/10 00:17:57;;;;;;;5.18;2.97;;;;;;;10.68;91.29;96601.03;2024559;29;20057;-61
2022/06/10 00:18:59;;;;;;;7.38;3.67;;;;;;;10.67;91.12;96604.53;2032068;29;20055;-61
2022/06/10 00:20:00;;;;;;;8.40;3.25;;;;;;;10.66;91.64;96607.19;2032977;29;20048;-60
2022/06/10 00:21:03;;;;;;;6.05;3.28;;;;;;;10.66;91.31;96602.84;2013703;29;20413;-59
2022/06/10 00:22:04;;;;;;;8.43;3.78;;;;;;;10.67;91.75;96614.09;2009898;29;20421;-58
2022/06/10 00:23:05;;;;;;;6.20;3.47;;;;;;;10.67;91.65;96603.69;2012552;29;20045;-58
2022/06/10 00:24:07;;;;;;;4.93;3.10;;;;;;;10.66;91.76;96600.22;2019485;29;20509;-60
2022/06/10 00:25:08;;;;;;;5.05;2.90;;;;;;;10.68;91.28;96606.22;2019865;29;20060;-60
2022/06/10 00:26:10;;;;;;;7.22;3.13;;;;;;;10.71;91.67;96611.28;2010154;29;21003;-60
2022/06/10 00:27:13;;;;;;;5.25;2.90;;;;;;;10.70;90.93;96609.63;2025365;29;20048;-60
2022/06/10 00:28:14;;;;;;;7.60;3.55;;;;;;;10.70;91.75;96609.63;2025289;29;20049;-60
2022/06/10 00:29:16;;;;;;;8.88;3.15;;;;;;;10.69;90.88;96612.25;2025422;29;20056;-61
2022/06/10 00:30:19;;;;;;;6.88;3.00;;;;;;;10.70;91.42;96606.19;2017179;29;20048;-59
2022/06/10 00:31:20;;;;;;;7.95;3.55;;;;;;;10.70;91.41;96609.63;2010019;29;20049;-58
2022/06/10 00:32:21;;;;;;;6.85;3.53;;;;;;;10.71;91.06;96611.28;2025157;29;20473;-60
2022/06/10 00:33:22;;;;;;;7.25;3.00;;;;;;;10.70;91.54;96611.38;2024136;29;20052;-60
2022/06/10 00:34:23;;;;;;;5.85;3.00;;;;;;;10.70;91.30;96608.78;2017447;29;20049;-61
2022/06/10 00:35:25;;;;;;;5.25;3.00;;;;;;;10.70;91.53;96611.38;2025389;29;20063;-60
2022/06/10 00:36:27;;;;;;;7.32;3.33;;;;;;;10.68;91.36;96605.38;2022853;29;20041;-60
2022/06/10 00:37:28;;;;;;;4.85;3.08;;;;;;;10.67;90.97;96612.34;2025452;29;20048;-61
2022/06/10 00:38:29;;;;;;;6.35;3.28;;;;;;;10.67;90.37;96608.91;2024906;29;20048;-60
2022/06/10 00:39:30;;;;;;;6.75;3.47;;;;;;;10.67;91.11;96611.50;2017804;29;20048;-60
2022/06/10 00:40:34;;;;;;;6.90;3.20;;;;;;;10.70;91.08;96604.41;2025140;29;20036;-60
2022/06/10 00:41:36;;;;;;;3.83;2.78;;;;;;;10.71;90.40;96607.84;2017825;29;20048;-59
2022/06/10 00:42:38;;;;;;;7.45;3.08;;;;;;;10.69;90.72;96607.06;2010044;29;20056;-60
2022/06/10 00:43:40;;;;;;;6.85;3.28;;;;;;;10.66;90.68;96618.41;2010656;29;20053;-60
2022/06/10 00:44:46;;;;;;;6.15;3.35;;;;;;;10.69;90.81;96618.31;2017443;29;20037;-61
2022/06/10 00:46:18;;;;;;;7.32;2.83;;;;;;;10.68;90.64;96614.00;2009562;29;20049;-60
2022/06/10 00:47:37;;;;;;;5.95;2.88;;;;;;;10.66;90.57;96609.78;2018091;29;20056;-59
2022/06/10 00:49:01;;;;;;;9.00;3.33;;;;;;;10.63;90.32;96615.94;2024622;29;20052;-58
2022/06/10 00:50:24;;;;;;;4.63;3.03;;;;;;;10.64;90.75;96608.97;2027861;29;20059;-60
2022/06/10 00:51:32;;;;;;;6.10;2.97;;;;;;;10.64;90.14;96612.44;2017738;29;20076;-60
2022/06/10 00:52:35;;;;;;;7.28;3.17;;;;;;;10.62;90.09;96614.25;2018218;29;20049;-61
2022/06/10 00:53:36;;;;;;;7.35;2.85;;;;;;;10.66;90.23;96615.81;2010060;29;20049;-60
2022/06/10 00:54:39;;;;;;;7.55;2.92;;;;;;;10.65;90.07;96610.69;2017380;29;20044;-60
2022/06/10 00:55:41;;;;;;;6.00;2.97;;;;;;;10.66;90.23;96612.38;2017935;29;20048;-61
2022/06/10 00:56:46;;;;;;;6.72;3.25;;;;;;;10.67;90.74;96617.53;2025127;29;20538;-58
2022/06/10 00:57:47;;;;;;;5.88;3.33;;;;;;;10.64;90.31;96614.19;2017321;29;20057;-60
2022/06/10 00:58:54;;;;;;;7.53;3.03;;;;;;;10.63;90.68;96609.91;2010249;29;20054;-59
2022/06/10 01:00:04;;;;;;;5.28;2.97;;;;;;;10.61;90.34;96612.53;2009779;29;20072;-60
2022/06/10 01:01:06;;;;;;;5.72;2.70;;;;;;;10.58;90.88;96610.94;2010379;29;20431;-58
2022/06/10 01:02:10;;;;;;;6.20;2.90;;;;;;;10.58;91.00;96615.25;2017648;29;20056;-61
2022/06/10 01:03:11;;;;;;;6.75;3.53;;;;;;;10.59;91.00;96611.78;2025431;29;20051;-60
2022/06/10 01:04:12;;;;;;;6.80;2.75;;;;;;;10.59;90.72;96614.38;2017375;29;20484;-60
2022/06/10 01:05:16;;;;;;;5.15;3.10;;;;;;;10.57;90.64;96610.97;2017355;29;20064;-61
2022/06/10 01:06:17;;;;;;;6.85;2.95;;;;;;;10.59;90.36;96611.78;2017028;29;20061;-60
2022/06/10 01:07:20;;;;;;;9.30;3.35;;;;;;;10.58;91.04;96615.25;2017269;29;20513;-60
2022/06/10 01:08:21;;;;;;;6.78;3.33;;;;;;;10.50;90.39;96606.91;2024095;29;20527;-60
2022/06/10 01:09:22;;;;;;;7.25;3.03;;;;;;;10.55;91.04;96612.78;2009494;29;20492;-60
2022/06/10 01:10:24;;;;;;;5.43;3.20;;;;;;;10.54;90.27;96608.50;2016558;29;20068;-61
2022/06/10 01:11:57;;;;;;;7.25;3.17;;;;;;;10.58;90.38;96610.06;2017142;29;20394;-59
2022/06/10 01:13:22;;;;;;;7.20;3.30;;;;;;;10.53;90.10;96615.44;2024348;29;20049;-61
2022/06/10 01:14:41;;;;;;;6.63;3.03;;;;;;;10.53;90.54;96609.38;2020456;29;20075;-60
2022/06/10 01:15:48;;;;;;;;;;;;;;;10.52;90.66;96605.09;2027905;29;20563;-60
2022/06/10 01:17:16;;;;;;;6.97;3.30;;;;;;;10.47;90.52;96607.88;2016794;29;19915;-60
2022/06/10 01:18:34;;;;;;;9.00;3.20;;;;;;;10.47;90.09;96612.22;2018710;29;20048;-60
2022/06/10 01:19:38;;;;;;;6.80;3.30;;;;;;;10.47;90.51;96612.22;2009499;29;20406;-60
2022/06/10 01:20:59;;;;;;;9.45;3.25;;;;;;;10.44;90.97;96614.94;2010180;29;20048;-59
2022/06/10 01:22:12;;;;;;;8.60;3.55;;;;;;;10.43;90.36;96610.66;2016491;29;20441;-59
2022/06/10 01:23:52;;;;;;;7.35;3.35;;;;;;;10.41;90.55;96613.28;2024064;29;20582;-62
2022/06/10 01:25:32;;;;;;;5.35;3.10;;;;;;;10.41;90.54;96617.66;2017356;29;20040;-60
2022/06/10 01:28:52;;;;;;;6.80;2.55;;;;;;;10.34;90.37;96612.69;2021559;29;20048;-61
2022/06/10 01:30:12;;;;;;;7.75;3.25;;;;;;;10.33;90.69;96617.94;2019572;29;20056;-59
2022/06/10 01:31:25;;;;;;;7.78;3.13;;;;;;;10.31;91.22;96614.53;2018156;29;20056;-59
2022/06/10 01:32:32;;;;;;;7.75;3.58;;;;;;;10.28;90.53;96615.47;2017649;29;20540;-61
2022/06/10 01:33:48;;;;;;;10.65;3.58;;;;;;;10.28;90.98;96615.47;2018097;29;20044;-60
2022/06/10 01:35:18;;;;;;;6.53;3.10;;;;;;;10.32;90.90;96611.06;2016603;29;20060;-59
2022/06/10 01:36:48;;;;;;;10.48;3.00;;;;;;;10.30;90.57;96615.44;2017417;29;20052;-61
2022/06/10 01:38:13;;;;;;;8.05;2.83;;;;;;;10.27;91.13;96618.13;2028621;29;20039;-60
2022/06/10 01:39:21;;;;;;;6.00;2.80;;;;;;;10.25;91.07;96617.31;2016960;29;20052;-61
2022/06/10 01:40:38;;;;;;;8.18;3.40;;;;;;;10.24;91.13;96618.25;2003400;29;20053;-60
2022/06/10 01:41:50;;;;;;;7.07;3.20;;;;;;;10.24;91.23;96618.25;2005214;29;20049;-60
2022/06/10 01:43:02;;;;;;;7.60;3.40;;;;;;;10.21;91.49;96624.38;2011520;29;20068;-60
2022/06/10 01:44:16;;;;;;;10.77;3.17;;;;;;;10.14;91.50;96599.53;2009576;29;20060;-60
2022/06/10 01:45:37;;;;;;;6.35;3.53;;;;;;;10.24;91.25;96620.84;2012691;29;20045;-62
2022/06/10 01:46:42;;;;;;;7.05;2.72;;;;;;;10.27;91.08;96619.00;2011826;29;20070;-59
2022/06/10 01:48:03;;;;;;;7.82;3.67;;;;;;;10.24;91.40;96623.44;2017817;29;20048;-59
2022/06/10 01:49:26;;;;;;;6.82;3.00;;;;;;;10.23;91.05;96625.16;2024292;29;20052;-56
2022/06/10 01:50:37;;;;;;;6.18;3.47;;;;;;;10.25;91.06;96618.16;2016220;29;20053;-60
2022/06/10 01:51:38;;;;;;;6.20;3.30;;;;;;;10.25;91.53;96620.75;2018556;29;20533;-58
2022/06/10 01:52:42;;;;;;;6.68;3.40;;;;;;;10.26;91.51;96619.84;2016895;29;20429;-61
2022/06/10 01:53:48;;;;;;;8.57;3.30;;;;;;;10.24;91.52;96623.44;2024514;29;20052;-60
2022/06/10 01:54:59;;;;;;;8.00;3.70;;;;;;;10.19;91.33;96608.00;2016232;29;20068;-62
2022/06/10 01:56:05;;;;;;;8.05;2.85;;;;;;;10.20;91.15;96620.06;2025368;29;20064;-59
2022/06/10 01:57:09;;;;;;;5.07;3.47;;;;;;;10.18;91.43;96619.28;2024086;29;20052;-60
2022/06/10 01:58:33;;;;;;;5.53;3.40;;;;;;;10.16;91.48;96618.50;2023968;29;20048;-60
2022/06/10 01:59:38;;;;;;;5.68;3.00;;;;;;;10.08;91.31;96617.94;2019280;29;20056;-60
2022/06/10 02:00:41;;;;;;;7.50;3.03;;;;;;;10.08;91.58;96620.53;2017205;29;20060;-61
2022/06/10 02:01:45;;;;;;;8.45;3.45;;;;;;;10.07;91.30;96624.84;2009311;29;20045;-60
2022/06/10 02:02:53;;;;;;;6.50;3.17;;;;;;;10.04;91.41;96622.38;2018291;29;20045;-60
2022/06/10 02:03:57;;;;;;;8.48;3.42;;;;;;;10.03;92.10;96627.63;2009048;29;20076;-60
2022/06/10 02:05:01;;;;;;;7.00;3.33;;;;;;;10.00;91.34;96627.75;2003342;29;20526;-60
2022/06/10 02:06:06;;;;;;;4.65;3.25;;;;;;;9.97;91.64;96628.69;2009614;29;20057;-61
2022/06/10 02:07:13;;;;;;;9.63;3.35;;;;;;;9.92;91.73;96628.84;2018759;29;20056;-61
2022/06/10 02:08:18;;;;;;;6.60;3.20;;;;;;;9.96;91.24;96631.31;2023994;29;20551;-60
2022/06/10 02:09:23;;;;;;;9.82;3.75;;;;;;;9.95;91.54;96627.88;2009862;29;20045;-59
2022/06/10 02:10:27;;;;;;;8.13;3.20;;;;;;;9.90;91.90;96628.03;2010153;29;20072;-60
2022/06/10 02:11:28;;;;;;;6.88;2.88;;;;;;;9.89;91.72;96630.66;2024749;29;20052;-61
2022/06/10 02:12:32;;;;;;;6.88;3.22;;;;;;;9.88;91.59;96631.59;2016612;29;20053;-59
2022/06/10 02:13:38;;;;;;;5.68;3.47;;;;;;;9.84;91.51;96628.25;2010495;29;20057;-61
2022/06/10 02:14:47;;;;;;;8.40;3.10;;;;;;;9.82;91.42;96637.84;2009245;29;20440;-59
2022/06/10 02:15:52;;;;;;;5.88;3.28;;;;;;;9.79;92.01;96635.34;2000301;29;20055;-60
2022/06/10 02:16:53;;;;;;;8.50;3.38;;;;;;;9.75;91.70;96631.16;2010373;29;20058;-60
2022/06/10 02:17:58;;;;;;;6.45;3.65;;;;;;;9.71;92.22;96629.56;2008916;29;20068;-59
2022/06/10 02:19:08;;;;;;;5.53;3.47;;;;;;;9.70;91.89;96630.44;2010019;29;20057;-61
2022/06/10 02:20:11;;;;;;;5.13;3.60;;;;;;;9.74;92.16;96637.25;2012098;29;20057;-60
2022/06/10 02:21:16;;;;;;;6.32;3.60;;;;;;;9.68;92.37;96640.91;2031980;29;20052;-61
2022/06/10 02:22:24;;;;;;;5.85;3.30;;;;;;;9.65;92.13;96637.53;2031438;29;20427;-60
2022/06/10 02:23:27;;;;;;;6.18;3.08;;;;;;;9.67;92.59;96639.19;2026030;29;20536;-59
2022/06/10 02:24:49;;;;;;;5.72;3.55;;;;;;;9.68;92.29;96642.66;2024660;29;20151;-61
2022/06/10 02:25:52;;;;;;;7.85;3.38;;;;;;;9.75;92.14;96643.28;2012586;29;20053;-60
2022/06/10 02:26:55;;;;;;;6.45;3.67;;;;;;;9.71;92.53;96650.31;2004487;29;20081;-60
2022/06/10 02:27:59;;;;;;;10.93;3.75;;;;;;;9.65;92.65;96642.72;2011275;29;20061;-61
2022/06/10 02:29:01;;;;;;;8.43;3.70;;;;;;;9.59;92.56;96643.78;2008317;29;20061;-59
2022/06/10 02:30:14;;;;;;;7.55;3.58;;;;;;;9.54;92.41;96652.59;2003849;29;20538;-59
2022/06/10 02:31:20;;;;;;;9.07;3.95;;;;;;;9.48;92.41;96651.91;2027849;29;20048;-58
2022/06/10 02:32:21;;;;;;;9.40;3.15;;;;;;;9.44;92.66;96650.31;2009647;29;20042;-61
2022/06/10 02:33:22;;;;;;;6.70;3.65;;;;;;;9.43;92.63;96653.78;2003035;29;20057;-60
2022/06/10 02:34:23;;;;;;;8.02;3.38;;;;;;;9.39;92.45;96656.56;2006259;29;20057;-60
2022/06/10 02:35:27;;;;;;;7.13;3.60;;;;;;;9.37;92.65;96659.19;2009226;29;20464;-60
2022/06/10 02:36:49;;;;;;;7.97;3.35;;;;;;;9.35;92.43;96650.59;2021412;29;20056;-60
2022/06/10 02:37:53;;;;;;;7.15;3.35;;;;;;;9.36;92.46;96646.28;2027791;29;20056;-60
2022/06/10 02:39:01;;;;;;;7.82;3.50;;;;;;;9.40;93.04;96659.09;2017063;29;20860;-61
2022/06/10 02:40:08;;;;;;;6.43;3.28;;;;;;;9.36;93.14;96656.66;2002576;29;20057;-60
2022/06/10 02:41:32;;;;;;;10.02;4.13;;;;;;;9.34;92.75;96658.44;1998418;29;20058;-59
2022/06/10 02:42:43;;;;;;;7.80;4.30;;;;;;;9.36;92.52;96665.28;2014617;29;20048;-61
2022/06/10 02:43:49;;;;;;;6.90;3.70;;;;;;;9.36;92.83;96659.25;2012045;29;20056;-59
2022/06/10 02:44:50;;;;;;;8.20;3.20;;;;;;;9.31;92.51;96656.78;2017297;29;20044;-59
2022/06/10 02:46:00;;;;;;;10.73;3.50;;;;;;;9.34;92.92;96663.63;2018707;29;20049;-60
2022/06/10 02:47:40;;;;;;;6.97;4.28;;;;;;;9.29;93.05;96663.75;2018640;29;20064;-60
2022/06/10 02:48:53;;;;;;;7.10;3.67;;;;;;;9.28;93.19;96660.34;2015005;29;20048;-58
2022/06/10 02:49:54;;;;;;;6.70;3.50;;;;;;;9.23;92.70;96661.38;2012158;29;20053;-60
2022/06/10 02:50:56;;;;;;;6.95;3.63;;;;;;;9.22;92.94;96654.47;2010911;29;20049;-61
2022/06/10 02:51:57;;;;;;;12.38;4.55;;;;;;;9.28;92.88;96662.09;2003576;29;20049;-60
2022/06/10 02:52:58;;;;;;;8.32;3.75;;;;;;;9.25;92.97;96660.44;2010542;29;20440;-60
2022/06/10 02:54:00;;;;;;;6.22;3.45;;;;;;;9.26;93.46;96669.06;1995032;29;20524;-60
2022/06/10 02:55:02;;;;;;;9.18;3.58;;;;;;;9.25;93.22;96665.63;2002373;29;20060;-60
2022/06/10 02:56:22;;;;;;;6.28;3.83;;;;;;;9.25;93.13;96662.19;2010052;29;20057;-59
2022/06/10 03:01:11;;;;;;;10.00;3.70;;;;;;;9.28;93.24;96668.09;2015494;29;20053;-60
2022/06/10 03:02:55;;;;;;;6.82;3.55;;;;;;;9.23;93.52;96669.16;2013993;29;20049;-60
2022/06/10 03:04:09;;;;;;;8.85;3.63;;;;;;;9.23;93.36;96674.34;2018567;29;20063;-60
2022/06/10 03:05:16;;;;;;;8.82;4.22;;;;;;;9.22;93.55;96675.22;2002712;29;20056;-60
2022/06/10 03:06:23;;;;;;;8.45;4.07;;;;;;;9.21;93.11;96668.34;2012473;29;20053;-59
2022/06/10 03:07:29;;;;;;;6.72;3.58;;;;;;;9.17;92.76;96680.56;2017662;29;20049;-60
2022/06/10 03:08:37;;;;;;;6.32;3.67;;;;;;;9.14;92.84;96677.19;2018365;29;20541;-61
2022/06/10 03:10:01;;;;;;;6.47;3.60;;;;;;;9.16;92.98;96673.66;2017144;29;20086;-60
2022/06/10 03:11:28;;;;;;;7.30;3.95;;;;;;;9.14;93.61;96682.38;2014291;29;20120;-59
2022/06/10 03:12:51;;;;;;;6.72;3.58;;;;;;;9.07;93.37;96678.28;2000779;29;20057;-57
2022/06/10 03:14:06;;;;;;;8.80;3.80;;;;;;;9.06;93.30;96674.81;2009181;29;20056;-61
2022/06/10 03:15:17;;;;;;;8.55;4.22;;;;;;;9.05;93.36;96679.16;2025876;29;20048;-59
2022/06/10 03:16:28;;;;;;;8.05;3.75;;;;;;;9.02;93.74;96681.84;2024243;29;20412;-60
2022/06/10 03:17:29;;;;;;;5.88;3.63;;;;;;;9.01;93.57;96684.50;2025391;29;20470;-61
2022/06/10 03:18:53;;;;;;;9.57;4.43;;;;;;;8.99;93.56;96684.53;2024723;29;20406;-59
2022/06/10 03:20:13;;;;;;;11.57;4.10;;;;;;;8.94;93.42;96686.41;2017534;29;20547;-60
2022/06/10 03:21:28;;;;;;;10.35;4.25;;;;;;;8.94;93.09;96688.16;2018059;29;20041;-61
2022/06/10 03:22:46;;;;;;;9.50;4.30;;;;;;;8.91;93.20;96689.09;2018164;29;20448;-60
2022/06/10 03:24:06;;;;;;;7.43;4.00;;;;;;;8.91;93.32;96680.50;2010862;29;20049;-60
2022/06/10 03:25:27;;;;;;;9.80;4.20;;;;;;;8.91;93.47;96681.34;2020146;29;20060;-60
2022/06/10 03:26:57;;;;;;;10.10;4.15;;;;;;;8.91;93.36;96689.09;2006281;29;20057;-60
2022/06/10 03:28:22;;;;;;;8.10;3.83;;;;;;;8.92;93.30;96689.94;2018130;29;20060;-60
2022/06/10 03:29:47;;;;;;;10.82;4.30;;;;;;;8.89;93.49;96698.66;2016337;29;20056;-60
2022/06/10 03:30:57;;;;;;;8.48;4.45;;;;;;;8.88;93.55;96704.75;2008994;29;20539;-60
2022/06/10 03:32:03;;;;;;;11.52;4.25;;;;;;;8.94;93.78;96703.72;2016204;29;20053;-60
2022/06/10 03:33:23;;;;;;;8.23;4.90;;;;;;;8.93;93.44;96702.03;2025561;29;20052;-57
2022/06/10 03:34:35;;;;;;;8.05;3.80;;;;;;;8.92;93.37;96711.50;2018112;29;20476;-60
2022/06/10 03:35:55;;;;;;;9.20;3.85;;;;;;;8.94;93.28;96711.47;2019104;29;20049;-59
2022/06/10 03:36:57;;;;;;;6.65;3.90;;;;;;;8.92;93.31;96708.91;2012669;29;20064;-59
2022/06/10 03:38:00;;;;;;;6.93;3.97;;;;;;;8.94;93.43;96712.31;2017884;29;20056;-60
2022/06/10 03:39:01;;;;;;;7.13;4.28;;;;;;;8.93;93.58;96704.63;2017916;29;20529;-60
2022/06/10 03:40:03;;;;;;;9.20;4.47;;;;;;;8.92;93.73;96713.25;2011227;29;20057;-60
2022/06/10 03:41:04;;;;;;;5.60;3.85;;;;;;;8.93;93.54;96717.56;2025559;29;20516;-58
2022/06/10 03:42:09;;;;;;;7.55;4.38;;;;;;;8.93;93.29;96715.81;2010523;29;20057;-59
2022/06/10 03:43:12;;;;;;;7.20;4.60;;;;;;;8.91;93.96;96714.16;2018461;29;20486;-60
2022/06/10 03:44:15;;;;;;;6.53;4.32;;;;;;;8.92;93.96;96716.69;2025305;29;20428;-60
2022/06/10 03:45:19;;;;;;;8.57;4.05;;;;;;;8.91;93.90;96711.56;2018098;29;20048;-60
2022/06/10 03:46:31;;;;;;;5.72;3.78;;;;;;;8.90;93.40;96718.50;2011642;29;20056;-58
2022/06/10 03:47:32;;;;;;;10.95;4.72;;;;;;;8.91;93.73;96725.38;2010810;29;20417;-60
2022/06/10 03:48:35;;;;;;;6.93;3.90;;;;;;;8.89;93.43;96721.13;2011909;29;20045;-62
2022/06/10 03:49:43;;;;;;;12.98;4.60;;;;;;;8.91;93.53;96724.53;2002657;29;20061;-62
2022/06/10 03:50:44;;;;;;;6.55;4.22;;;;;;;8.93;93.63;96725.34;2011347;29;20046;-60
2022/06/10 03:51:45;;;;;;;8.25;4.30;;;;;;;8.90;94.14;96721.09;2010289;29;20061;-61
2022/06/10 03:52:47;;;;;;;8.13;4.00;;;;;;;8.94;94.09;96721.84;2008055;29;20057;-61
2022/06/10 03:53:48;;;;;;;8.20;4.50;;;;;;;8.92;94.00;96724.47;2000719;29;20569;-60
2022/06/10 03:54:49;;;;;;;7.85;4.53;;;;;;;8.94;93.65;96725.28;2000653;29;20057;-63
2022/06/10 03:55:50;;;;;;;7.40;4.38;;;;;;;8.95;93.74;96724.38;2014403;29;20125;-61
2022/06/10 03:56:52;;;;;;;8.13;4.30;;;;;;;8.99;93.79;96730.34;2009767;29;20046;-63
2022/06/10 03:57:53;;;;;;;12.18;4.70;;;;;;;8.96;93.61;96720.06;2006833;29;20199;-62
2022/06/10 03:58:54;;;;;;;8.43;4.20;;;;;;;8.99;93.48;96731.19;2001915;29;20060;-61
2022/06/10 03:59:55;;;;;;;8.40;4.40;;;;;;;9.04;94.01;96728.47;2009995;29;20167;-61
2022/06/10 04:00:58;;;;;;;8.40;4.45;;;;;;;9.01;93.75;96720.78;2008637;29;20057;-61
2022/06/10 04:01:59;;;;;;;6.95;4.65;;;;;;;9.00;93.21;96727.69;2010687;29;20053;-64
2022/06/10 04:03:00;;;;;;;8.68;4.65;;;;;;;8.98;93.15;96726.03;2010914;29;20050;-61
2022/06/10 04:04:02;;;;;;;8.13;4.68;;;;;;;8.97;93.75;96730.38;2011025;29;20418;-61
2022/06/10 04:05:03;;;;;;;8.85;4.50;;;;;;;8.97;93.42;96726.94;2010769;29;20056;-62
2022/06/10 04:06:05;;;;;;;8.38;4.95;;;;;;;8.94;93.40;96732.22;2009609;29;20053;-59
2022/06/10 04:07:06;;;;;;;9.50;4.80;;;;;;;8.94;93.79;96733.03;2010348;29;20053;-60
2022/06/10 04:08:07;;;;;;;8.35;4.38;;;;;;;8.93;93.66;96731.38;2009219;29;20069;-62
2022/06/10 04:09:09;;;;;;;6.25;4.20;;;;;;;8.96;93.35;96735.59;2010641;29;20548;-60
2022/06/10 04:10:14;;;;;;;8.13;4.65;;;;;;;8.95;93.40;96734.72;1999591;29;20058;-61
2022/06/10 04:11:15;;;;;;;8.20;4.68;;;;;;;8.97;93.13;96734.69;2002932;29;20050;-61
2022/06/10 04:12:16;;;;;;;9.38;4.97;;;;;;;8.98;93.59;96733.78;2013208;29;20056;-61
2022/06/10 04:13:19;;;;;;;8.60;4.20;;;;;;;8.99;93.78;96738.09;2018307;29;20057;-63
2022/06/10 04:14:22;;;;;;;12.18;5.10;;;;;;;9.04;93.80;96738.81;2017272;29;20060;-61
2022/06/10 04:15:27;;;;;;;7.70;4.95;;;;;;;9.02;93.75;96738.84;2002385;29;20506;-61
2022/06/10 04:16:28;;;;;;;7.03;4.63;;;;;;;9.02;93.80;96738.84;2009735;29;20490;-61
2022/06/10 04:17:30;;;;;;;9.10;4.80;;;;;;;9.01;94.06;96741.50;2007436;29;20054;-62
2022/06/10 04:18:31;;;;;;;11.95;4.78;;;;;;;9.01;93.71;96741.50;2002242;29;20049;-62
2022/06/10 04:19:32;;;;;;;12.00;4.63;;;;;;;8.99;93.97;96744.13;2007296;29;20053;-61
2022/06/10 04:20:35;;;;;;;9.18;4.60;;;;;;;9.02;93.27;96745.78;2005925;29;20064;-62
2022/06/10 04:21:36;;;;;;;8.70;4.88;;;;;;;9.02;93.60;96741.44;2003671;29;20530;-61
2022/06/10 04:22:38;;;;;;;10.02;4.82;;;;;;;9.02;93.53;96741.44;2011628;29;20041;-61
2022/06/10 04:23:39;;;;;;;9.98;4.82;;;;;;;9.03;93.86;96742.28;2011151;29;20049;-62
2022/06/10 04:24:40;;;;;;;13.13;5.50;;;;;;;9.03;93.62;96743.16;2010243;29;20053;-61
2022/06/10 04:25:41;;;;;;;7.20;4.22;;;;;;;9.04;93.54;96742.25;2010535;29;20442;-62
2022/06/10 04:26:42;;;;;;;6.22;4.13;;;;;;;9.15;93.28;96741.09;2005695;29;20050;-60
2022/06/10 04:27:44;;;;;;;8.75;4.18;;;;;;;9.16;93.14;96742.78;2003963;29;20054;-61
2022/06/10 04:28:45;;;;;;;8.10;4.30;;;;;;;9.15;93.54;96741.09;2003513;29;20052;-60
2022/06/10 04:29:46;;;;;;;9.73;4.82;;;;;;;9.18;93.54;96741.00;2010225;29;20056;-62
2022/06/10 04:30:49;;;;;;;8.45;4.50;;;;;;;9.17;92.91;96741.91;2011114;29;20060;-61
2022/06/10 04:31:50;;;;;;;8.65;5.07;;;;;;;9.17;93.55;96744.50;2010565;29;20060;-59
2022/06/10 04:32:51;;;;;;;8.77;4.68;;;;;;;9.19;93.18;96745.28;2010653;29;20054;-61
2022/06/10 04:33:52;;;;;;;8.45;4.75;;;;;;;9.21;93.25;96740.91;2010300;29;20057;-62
2022/06/10 04:34:53;;;;;;;9.48;4.47;;;;;;;9.22;93.47;96748.66;2010585;29;20058;-61
2022/06/10 04:35:55;;;;;;;9.38;4.30;;;;;;;9.26;93.21;96751.97;2002679;29;20053;-61
2022/06/10 04:36:56;;;;;;;8.80;4.30;;;;;;;9.29;93.05;96744.13;2018769;29;20099;-61
2022/06/10 04:37:57;;;;;;;7.22;4.13;;;;;;;9.30;93.04;96744.97;2018349;29;20059;-61
2022/06/10 04:38:59;;;;;;;10.23;3.80;;;;;;;9.33;92.87;96748.31;2009900;29;20045;-63
2022/06/10 04:40:00;;;;;;;9.48;4.35;;;;;;;9.35;92.82;96751.69;2003045;29;20065;-60
2022/06/10 04:41:05;;;;;;;7.38;4.00;;;;;;;9.38;93.34;96751.63;1997315;29;20071;-62
2022/06/10 04:42:07;;;;;;;8.13;3.90;;;;;;;9.40;93.41;96751.56;2009913;29;20055;-61
2022/06/10 04:43:09;;;;;;;9.07;4.28;;;;;;;9.42;93.33;96750.63;1994674;29;20050;-61
2022/06/10 04:44:10;;;;;;;8.63;4.00;;;;;;;9.45;93.07;96750.53;1994688;29;20057;-59
2022/06/10 04:45:11;;;;;;;11.55;4.38;;;;;;;9.49;92.50;96756.47;2012505;29;20041;-61
2022/06/10 04:46:20;;;;;;;7.15;3.88;;;;;;;9.52;92.87;96748.59;2010168;29;20061;-60
2022/06/10 04:47:21;;;;;;;;;;;;;;;9.56;92.43;96752.78;2011390;29;20061;-61
2022/06/10 04:48:24;;;;;;;9.13;4.78;;;;;;;9.58;92.32;96750.16;2009831;29;19924;-61
2022/06/10 04:49:25;;;;;;;9.00;3.85;;;;;;;9.60;92.47;96750.97;2009995;29;20045;-62
2022/06/10 04:50:27;;;;;;;7.60;4.00;;;;;;;9.64;92.34;96755.13;2010808;29;20053;-59
2022/06/10 04:51:28;;;;;;;11.05;4.32;;;;;;;9.67;92.11;96755.03;2018027;29;20524;-58
2022/06/10 04:52:29;;;;;;;9.45;4.40;;;;;;;9.68;92.45;96754.16;2010044;29;20049;-61
2022/06/10 04:53:30;;;;;;;6.05;3.85;;;;;;;9.74;92.16;96760.91;2010281;29;20442;-60
2022/06/10 04:54:32;;;;;;;6.18;3.92;;;;;;;9.77;92.23;96758.22;2018441;29;20057;-60
2022/06/10 04:55:33;;;;;;;7.75;3.90;;;;;;;9.85;91.76;96758.81;2009922;29;20057;-61
2022/06/10 04:56:34;;;;;;;6.22;3.88;;;;;;;9.94;91.69;96758.50;2002036;29;20050;-62
2022/06/10 04:57:36;;;;;;;10.27;3.92;;;;;;;9.96;91.20;96761.06;2002193;29;20046;-62
2022/06/10 04:58:37;;;;;;;5.32;3.25;;;;;;;10.04;91.85;96764.25;1994091;29;20043;-62
2022/06/10 04:59:38;;;;;;;8.98;3.72;;;;;;;10.09;90.88;96763.19;1988001;29;20058;-61
2022/06/10 05:00:43;;;;;;;6.47;3.60;;;;;;;10.14;91.30;96765.63;2002929;29;20050;-62
2022/06/10 05:01:44;;;;;;;6.55;3.70;;;;;;;10.13;90.55;96769.13;2003008;29;20114;-62
2022/06/10 05:02:45;;;;;;;8.68;3.53;;;;;;;10.18;90.62;96763.78;2017309;29;20060;-60
2022/06/10 05:03:46;;;;;;;7.68;3.60;;;;;;;10.25;90.32;96762.69;2011878;29;20049;-60
2022/06/10 05:04:48;;;;;;;5.80;3.33;;;;;;;10.22;89.70;96765.38;2010199;29;20045;-61
2022/06/10 05:05:49;;;;;;;6.68;3.40;;;;;;;10.26;89.54;96764.38;2009376;29;20069;-62
2022/06/10 05:06:50;;;;;;;8.00;3.28;;;;;;;10.35;89.60;96764.09;2010043;29;20058;-61
2022/06/10 05:07:52;;;;;;;4.93;3.13;;;;;;;10.40;89.29;96766.53;2009883;29;20054;-61
2022/06/10 05:08:53;;;;;;;6.97;3.25;;;;;;;10.45;89.24;96764.63;2001704;29;20054;-62
2022/06/10 05:09:54;;;;;;;6.55;3.38;;;;;;;10.52;89.84;96771.31;2002356;29;20064;-62
2022/06/10 05:10:55;;;;;;;7.65;3.55;;;;;;;10.59;89.71;96772.81;2003095;29;20054;-61
2022/06/10 05:11:56;;;;;;;5.40;2.85;;;;;;;10.67;88.91;96775.13;2006832;29;20054;-61
2022/06/10 05:12:58;;;;;;;5.95;3.60;;;;;;;10.70;89.04;96781.06;2010106;29;20064;-60
2022/06/10 05:13:59;;;;;;;5.32;2.90;;;;;;;10.78;89.58;96773.00;1994838;29;20050;-61
2022/06/10 05:15:00;;;;;;;6.10;2.80;;;;;;;10.84;88.11;96774.53;2000673;29;20054;-63
2022/06/10 05:16:02;;;;;;;8.07;3.33;;;;;;;10.89;88.18;96772.63;2010110;29;20532;-63
2022/06/10 05:17:03;;;;;;;7.30;3.13;;;;;;;10.92;88.06;96770.75;2008672;29;20070;-62
2022/06/10 05:18:04;;;;;;;7.18;3.05;;;;;;;10.96;88.33;96774.94;2002379;29;20058;-63
2022/06/10 05:19:06;;;;;;;6.80;3.40;;;;;;;11.04;89.20;96779.88;2008676;29;20056;-61
2022/06/10 05:20:08;;;;;;;7.07;2.65;;;;;;;11.07;87.83;96776.31;2013404;29;20057;-61